createdAt,value
2019-01-04T00:00:40.205Z,6.87
2019-01-04T00:03:10.827Z,7.60
2019-01-04T00:05:41.313Z,7.07
2019-01-04T00:08:11.793Z,7.30
2019-01-04T00:10:42.306Z,6.77
2019-01-04T00:13:12.766Z,7.17
2019-01-04T00:15:43.369Z,6.30
2019-01-04T00:18:13.913Z,7.00
2019-01-04T00:20:44.534Z,6.80
2019-01-04T00:23:15.011Z,7.40
2019-01-04T00:25:45.512Z,6.73
2019-01-04T00:28:15.993Z,7.00
2019-01-04T00:30:46.690Z,6.70
2019-01-04T00:33:17.171Z,7.13
2019-01-04T00:35:47.733Z,7.10
2019-01-04T00:38:18.224Z,7.37
2019-01-04T00:40:48.744Z,7.00
2019-01-04T00:43:19.235Z,6.50
2019-01-04T00:45:49.747Z,7.17
2019-01-04T00:48:20.197Z,8.07
2019-01-04T00:50:50.903Z,7.33
2019-01-04T00:53:21.457Z,7.63
2019-01-04T00:56:57.634Z,7.20
2019-01-04T01:00:25.400Z,6.90
2019-01-04T01:03:59.751Z,7.50
2019-01-04T01:07:24.512Z,7.43
2019-01-04T01:10:54.830Z,7.20
2019-01-04T01:14:20.676Z,7.13
2019-01-04T01:17:29.042Z,6.80
2019-01-04T01:20:49.329Z,7.10
2019-01-04T01:24:25.052Z,7.60
2019-01-04T01:28:02.657Z,7.27
2019-01-04T01:31:23.867Z,7.57
2019-01-04T01:34:57.899Z,7.63
2019-01-04T01:38:23.205Z,7.23
2019-01-04T01:41:52.773Z,7.43
2019-01-04T01:45:11.780Z,7.83
2019-01-04T01:48:16.017Z,7.80
2019-01-04T01:51:19.498Z,8.40
2019-01-04T01:53:49.942Z,8.10
2019-01-04T01:56:20.421Z,7.83
2019-01-04T01:58:50.926Z,7.37
2019-01-04T02:01:21.451Z,8.23
2019-01-04T02:03:51.921Z,7.30
2019-01-04T02:06:22.429Z,7.57
2019-01-04T02:08:52.866Z,7.97
2019-01-04T02:11:25.753Z,7.47
2019-01-04T02:13:56.169Z,7.57
2019-01-04T02:16:26.700Z,7.47
2019-01-04T02:18:57.131Z,6.97
2019-01-04T02:21:27.560Z,8.27
2019-01-04T02:23:58.124Z,7.73
2019-01-04T02:26:28.574Z,8.53
2019-01-04T02:28:59.038Z,7.70
2019-01-04T02:31:29.580Z,7.60
2019-01-04T02:34:00.097Z,7.70
2019-01-04T02:36:30.558Z,7.03
2019-01-04T02:39:01.000Z,8.27
2019-01-04T02:41:31.462Z,7.93
2019-01-04T02:44:01.953Z,7.60
2019-01-04T02:46:32.383Z,8.10
2019-01-04T02:49:02.883Z,7.57
2019-01-04T02:51:33.346Z,7.53
2019-01-04T02:54:03.883Z,8.10
2019-01-04T02:56:34.361Z,8.13
2019-01-04T02:59:04.815Z,7.97
2019-01-04T03:01:35.277Z,8.20
2019-01-04T03:04:05.892Z,7.97
2019-01-04T03:06:36.331Z,7.50
2019-01-04T03:09:07.687Z,8.03
2019-01-04T03:11:38.194Z,7.77
2019-01-04T03:14:08.805Z,7.67
2019-01-04T03:16:39.250Z,8.20
2019-01-04T03:19:09.713Z,8.27
2019-01-04T03:21:40.164Z,8.03
2019-01-04T03:24:10.701Z,7.97
2019-01-04T03:26:41.126Z,9.13
2019-01-04T03:29:11.577Z,7.80
2019-01-04T03:31:42.049Z,8.83
2019-01-04T03:34:12.524Z,8.73
2019-01-04T03:36:42.947Z,10.07
2019-01-04T03:39:13.417Z,9.30
2019-01-04T03:41:43.889Z,9.33
2019-01-04T03:44:14.369Z,8.93
2019-01-04T03:46:44.876Z,9.73
2019-01-04T03:49:15.370Z,9.23
2019-01-04T03:51:45.814Z,9.63
2019-01-04T03:54:16.306Z,10.37
2019-01-04T03:56:46.744Z,9.83
2019-01-04T03:59:17.205Z,10.90
2019-01-04T04:01:47.856Z,12.03
2019-01-04T04:04:18.358Z,10.93
2019-01-04T04:06:48.803Z,11.50
2019-01-04T04:09:19.303Z,11.80
2019-01-04T04:11:49.783Z,12.70
2019-01-04T04:14:20.276Z,11.73
2019-01-04T04:16:50.772Z,11.80
2019-01-04T04:19:21.217Z,12.33
2019-01-04T04:21:51.670Z,13.00
2019-01-04T04:24:22.128Z,12.57
2019-01-04T04:26:52.793Z,12.47
2019-01-04T04:29:23.290Z,11.67
2019-01-04T04:31:53.743Z,11.63
2019-01-04T04:34:24.263Z,11.37
2019-01-04T04:36:54.704Z,12.30
2019-01-04T04:39:25.279Z,11.67
2019-01-04T04:41:55.744Z,11.70
2019-01-04T04:44:26.211Z,10.30
2019-01-04T04:46:56.693Z,11.10
2019-01-04T04:49:27.145Z,10.97
2019-01-04T04:51:57.594Z,10.27
2019-01-04T04:54:28.070Z,10.00
2019-01-04T04:56:58.507Z,11.10
2019-01-04T04:59:29.091Z,10.77
2019-01-04T05:01:59.535Z,10.53
2019-01-04T05:04:29.999Z,10.97
2019-01-04T05:07:00.415Z,11.63
2019-01-04T05:09:30.856Z,11.13
2019-01-04T05:12:01.311Z,11.13
2019-01-04T05:14:31.790Z,11.63
2019-01-04T05:17:02.237Z,10.23
2019-01-04T05:19:32.741Z,10.47
2019-01-04T05:22:03.267Z,10.50
2019-01-04T05:24:33.730Z,9.67
2019-01-04T05:27:04.170Z,10.57
2019-01-04T05:29:34.614Z,10.90
2019-01-04T05:32:05.081Z,10.93
2019-01-04T05:34:35.572Z,11.50
2019-01-04T05:37:06.054Z,12.73
2019-01-04T05:39:36.503Z,12.07
2019-01-04T05:42:06.998Z,12.67
2019-01-04T05:44:37.475Z,12.13
2019-01-04T05:47:07.967Z,12.20
2019-01-04T05:49:38.403Z,12.87
2019-01-04T05:52:08.905Z,12.33
2019-01-04T05:54:39.413Z,11.97
2019-01-04T05:57:09.864Z,12.70
2019-01-04T05:59:40.471Z,13.13
2019-01-04T06:02:10.902Z,14.17
2019-01-04T06:04:41.496Z,13.40
2019-01-04T06:07:11.967Z,13.47
2019-01-04T06:09:42.408Z,12.33
2019-01-04T06:12:12.818Z,13.73
2019-01-04T06:14:43.308Z,13.40
2019-01-04T06:17:13.700Z,13.70
2019-01-04T06:19:44.185Z,13.43
2019-01-04T06:22:14.606Z,12.63
2019-01-04T06:24:45.057Z,13.60
2019-01-04T06:27:15.458Z,12.33
2019-01-04T06:29:45.907Z,13.33
2019-01-04T06:32:16.352Z,13.10
2019-01-04T06:34:46.874Z,12.50
2019-01-04T06:37:17.299Z,12.70
2019-01-04T06:39:47.778Z,11.83
2019-01-04T06:42:18.193Z,12.50
2019-01-04T06:44:48.628Z,12.63
2019-01-04T06:47:20.994Z,12.30
2019-01-04T06:49:52.324Z,11.40
2019-01-04T06:52:24.088Z,11.40
2019-01-04T06:55:57.454Z,10.90
2019-01-04T06:58:27.827Z,10.27
2019-01-04T07:00:58.310Z,11.23
2019-01-04T07:03:28.781Z,11.50
2019-01-04T07:05:59.253Z,10.97
2019-01-04T07:08:29.660Z,11.30
2019-01-04T07:11:00.118Z,10.17
2019-01-04T07:13:30.570Z,10.33
2019-01-04T07:16:01.089Z,10.43
2019-01-04T07:18:31.499Z,10.03
2019-01-04T07:21:01.946Z,10.17
2019-01-04T07:23:32.360Z,9.10
2019-01-04T07:26:02.807Z,9.73
2019-01-04T07:28:33.305Z,8.43
2019-01-04T07:31:03.756Z,8.67
2019-01-04T07:33:34.197Z,8.60
2019-01-04T07:36:04.653Z,8.60
2019-01-04T07:38:35.196Z,8.10
2019-01-04T07:41:05.614Z,8.27
2019-01-04T07:43:36.072Z,8.17
2019-01-04T07:46:06.581Z,8.10
2019-01-04T07:48:37.013Z,7.50
2019-01-04T07:51:07.508Z,7.70
2019-01-04T07:53:37.934Z,7.40
2019-01-04T07:56:08.367Z,7.70
2019-01-04T07:58:38.876Z,7.27
2019-01-04T08:01:09.385Z,6.90
2019-01-04T08:03:39.885Z,6.40
2019-01-04T08:06:10.378Z,7.03
2019-01-04T08:08:40.787Z,6.40
2019-01-04T08:11:11.312Z,6.80
2019-01-04T08:13:41.714Z,6.13
2019-01-04T08:16:12.360Z,6.50
2019-01-04T08:18:42.762Z,6.27
2019-01-04T08:21:16.234Z,6.57
2019-01-04T08:23:46.628Z,6.50
2019-01-04T08:26:17.102Z,5.83
2019-01-04T08:28:47.516Z,5.03
2019-01-04T08:31:18.002Z,5.53
2019-01-04T08:33:48.403Z,5.50
2019-01-04T08:36:18.834Z,5.33
2019-01-04T08:38:49.233Z,5.20
2019-01-04T08:41:19.660Z,5.67
2019-01-04T08:43:50.176Z,5.40
2019-01-04T08:46:20.605Z,5.30
2019-01-04T08:48:51.038Z,5.73
2019-01-04T08:51:21.453Z,5.60
2019-01-04T08:54:06.774Z,5.30
2019-01-04T08:56:39.175Z,5.53
2019-01-04T08:59:09.580Z,5.07
2019-01-04T09:01:40.014Z,4.87
2019-01-04T09:04:10.449Z,5.20
2019-01-04T09:06:41.093Z,6.77
2019-01-04T09:09:11.571Z,6.20
2019-01-04T09:11:42.029Z,5.27
2019-01-04T09:14:12.474Z,4.73
2019-01-04T09:16:42.963Z,4.27
2019-01-04T09:19:13.371Z,4.97
2019-01-04T09:21:43.798Z,5.33
2019-01-04T09:24:14.240Z,5.07
2019-01-04T09:26:44.712Z,5.80
2019-01-04T09:29:15.251Z,5.07
2019-01-04T09:31:45.682Z,4.80
2019-01-04T09:34:16.139Z,5.47
2019-01-04T09:36:46.578Z,5.30
2019-01-04T09:39:16.993Z,6.00
2019-01-04T09:42:23.642Z,4.93
2019-01-04T09:44:54.113Z,5.60
2019-01-04T09:47:24.573Z,5.37
2019-01-04T09:49:55.005Z,5.50
2019-01-04T09:52:25.452Z,5.07
2019-01-04T09:54:56.078Z,4.63
2019-01-04T09:57:26.542Z,5.00
2019-01-04T09:59:56.982Z,4.90
2019-01-04T10:02:27.504Z,5.10
2019-01-04T10:04:57.988Z,5.63
2019-01-04T10:07:28.444Z,5.10
2019-01-04T10:09:59.031Z,5.93
2019-01-04T10:12:29.687Z,4.67
2019-01-04T10:15:00.229Z,5.27
2019-01-04T10:17:30.665Z,5.03
2019-01-04T10:20:01.154Z,4.80
2019-01-04T10:22:31.663Z,5.00
2019-01-04T10:25:02.097Z,4.97
2019-01-04T10:27:32.706Z,5.40
2019-01-04T10:30:03.267Z,5.57
2019-01-04T10:32:33.732Z,5.50
2019-01-04T10:35:10.286Z,5.13
2019-01-04T10:37:36.496Z,5.43
2019-01-04T10:40:11.031Z,5.07
2019-01-04T10:42:39.745Z,6.20
2019-01-04T10:45:10.222Z,5.40
2019-01-04T10:47:40.665Z,5.53
2019-01-04T10:50:11.129Z,5.87
2019-01-04T10:52:41.591Z,5.60
2019-01-04T10:55:12.109Z,5.57
2019-01-04T10:57:42.511Z,4.70
2019-01-04T11:00:13.422Z,4.75
2019-01-04T11:02:43.894Z,4.93
2019-01-04T11:05:15.341Z,4.53
2019-01-04T11:07:45.780Z,5.00
2019-01-04T11:10:16.310Z,5.40
2019-01-04T11:12:46.727Z,4.90
2019-01-04T11:15:17.301Z,5.03
2019-01-04T11:17:47.763Z,5.47
2019-01-04T11:20:43.418Z,5.90
2019-01-04T11:24:15.842Z,5.50
2019-01-04T11:27:10.594Z,5.90
2019-01-04T11:30:39.992Z,5.37
2019-01-04T11:33:30.636Z,5.30
2019-01-04T11:37:04.430Z,5.80
2019-01-04T11:40:30.219Z,5.20
2019-01-04T11:43:47.482Z,5.07
2019-01-04T11:47:01.315Z,5.03
2019-01-04T11:50:32.859Z,5.60
2019-01-04T11:53:14.130Z,5.13
2019-01-04T11:55:44.615Z,5.73
2019-01-04T11:58:15.029Z,5.30
2019-01-04T12:00:45.477Z,5.60
2019-01-04T12:03:15.905Z,5.30
2019-01-04T12:05:46.341Z,5.73
2019-01-04T12:08:16.794Z,5.87
2019-01-04T12:10:47.362Z,5.67
2019-01-04T12:13:17.869Z,6.53
2019-01-04T12:15:48.290Z,5.97
2019-01-04T12:18:18.955Z,5.67
2019-01-04T12:20:49.423Z,6.30
2019-01-04T12:23:19.920Z,6.30
2019-01-04T12:25:50.294Z,5.87
2019-01-04T12:28:20.751Z,5.43
2019-01-04T12:30:51.276Z,5.80
2019-01-04T12:33:21.715Z,6.40
2019-01-04T12:35:52.179Z,5.73
2019-01-04T12:38:22.621Z,5.37
2019-01-04T12:40:53.057Z,5.40
2019-01-04T12:43:23.517Z,5.47
2019-01-04T12:45:53.935Z,5.20
2019-01-04T12:48:24.446Z,5.73
2019-01-04T12:50:54.859Z,5.10
2019-01-04T12:53:25.830Z,4.83
2019-01-04T12:55:56.276Z,5.10
2019-01-04T12:58:26.722Z,4.83
2019-01-04T13:00:57.296Z,5.00
2019-01-04T13:03:27.732Z,5.30
2019-01-04T13:05:58.294Z,5.23
2019-01-04T13:08:28.790Z,5.27
2019-01-04T13:10:59.565Z,4.87
2019-01-04T13:13:30.034Z,5.17
2019-01-04T13:16:00.878Z,5.03
2019-01-04T13:18:31.509Z,5.07
2019-01-04T13:21:02.030Z,5.27
2019-01-04T13:23:32.544Z,4.67
2019-01-04T13:26:03.518Z,4.50
2019-01-04T13:28:33.999Z,4.47
2019-01-04T13:31:04.465Z,4.10
2019-01-04T13:33:34.926Z,3.80
2019-01-04T13:36:08.298Z,3.90
2019-01-04T13:38:38.788Z,3.80
2019-01-04T13:41:09.252Z,4.30
2019-01-04T13:43:39.750Z,3.67
2019-01-04T13:46:10.354Z,4.23
2019-01-04T13:48:40.919Z,3.60
2019-01-04T13:51:11.582Z,3.00
2019-01-04T13:53:42.018Z,3.50
2019-01-04T13:56:12.470Z,4.00
2019-01-04T13:58:42.945Z,3.47
2019-01-04T14:01:13.489Z,3.10
2019-01-04T14:03:44.052Z,3.30
2019-01-04T14:06:14.559Z,3.70
2019-01-04T14:08:45.049Z,3.90
2019-01-04T14:11:15.555Z,3.37
2019-01-04T14:13:46.035Z,3.83
2019-01-04T14:16:16.609Z,4.50
2019-01-04T14:18:47.099Z,4.43
2019-01-04T14:21:17.675Z,3.97
2019-01-04T14:23:48.164Z,4.13
2019-01-04T14:26:18.576Z,4.17
2019-01-04T14:28:49.241Z,4.80
2019-01-04T14:31:20.318Z,4.30
2019-01-04T14:33:50.776Z,4.33
2019-01-04T14:36:21.277Z,4.37
2019-01-04T14:38:51.716Z,3.93
2019-01-04T14:41:23.427Z,3.73
2019-01-04T14:43:53.981Z,4.07
2019-01-04T14:46:25.172Z,4.40
2019-01-04T14:48:57.088Z,4.20
2019-01-04T14:51:27.517Z,4.40
2019-01-04T14:53:57.994Z,3.83
2019-01-04T14:56:28.416Z,3.87
2019-01-04T14:58:58.875Z,4.10
2019-01-04T15:01:29.332Z,5.10
2019-01-04T15:04:00.068Z,4.10
2019-01-04T15:06:30.853Z,4.43
2019-01-04T15:09:01.400Z,3.87
2019-01-04T15:11:31.864Z,3.70
2019-01-04T15:14:02.602Z,3.80
2019-01-04T15:16:33.051Z,3.33
2019-01-04T15:19:03.508Z,3.50
2019-01-04T15:21:34.022Z,4.13
2019-01-04T15:24:04.501Z,3.27
2019-01-04T15:26:34.981Z,3.20
2019-01-04T15:29:05.472Z,2.80
2019-01-04T15:31:35.927Z,2.60
2019-01-04T15:34:06.484Z,2.67
2019-01-04T15:36:36.901Z,2.70
2019-01-04T15:39:09.229Z,2.87
2019-01-04T15:41:39.632Z,2.83
2019-01-04T15:44:10.133Z,2.97
2019-01-04T15:46:40.575Z,2.87
2019-01-04T15:49:11.180Z,2.70
2019-01-04T15:51:41.696Z,2.60
2019-01-04T15:54:12.143Z,2.63
2019-01-04T15:56:42.551Z,2.50
2019-01-04T15:59:13.505Z,2.23
2019-01-04T16:01:43.974Z,2.50
2019-01-04T16:04:14.664Z,2.43
2019-01-04T16:06:45.081Z,2.37
2019-01-04T16:09:15.552Z,2.30
2019-01-04T16:11:45.990Z,2.60
2019-01-04T16:14:16.445Z,2.20
2019-01-04T16:16:46.929Z,2.30
2019-01-04T16:19:17.393Z,2.10
2019-01-04T16:21:47.896Z,2.27
2019-01-04T16:24:18.441Z,1.90
2019-01-04T16:26:48.896Z,2.10
2019-01-04T16:29:19.377Z,2.20
2019-01-04T16:31:49.951Z,2.10
2019-01-04T16:34:20.416Z,2.33
2019-01-04T16:36:50.846Z,2.17
2019-01-04T16:39:21.344Z,2.33
2019-01-04T16:41:51.781Z,1.80
2019-01-04T16:44:22.338Z,2.23
2019-01-04T16:46:52.763Z,2.17
2019-01-04T16:49:23.250Z,2.57
2019-01-04T16:51:53.678Z,2.63
2019-01-04T16:54:24.155Z,2.30
2019-01-04T16:56:54.881Z,2.50
2019-01-04T16:59:25.461Z,2.90
2019-01-04T17:01:55.944Z,2.87
2019-01-04T17:04:26.331Z,2.50
2019-01-04T17:06:56.806Z,2.57
2019-01-04T17:09:27.338Z,2.67
2019-01-04T17:11:57.790Z,2.50
2019-01-04T17:14:28.207Z,2.47
2019-01-04T17:16:58.699Z,2.30
2019-01-04T17:19:29.118Z,2.43
2019-01-04T17:21:59.597Z,2.07
2019-01-04T17:24:30.068Z,2.57
2019-01-04T17:27:00.587Z,2.50
2019-01-04T17:29:31.062Z,2.80
2019-01-04T17:32:01.608Z,2.70
2019-01-04T17:34:33.359Z,2.73
2019-01-04T17:37:04.162Z,1.90
2019-01-04T17:39:34.657Z,1.80
2019-01-04T17:42:05.321Z,1.97
2019-01-04T17:44:35.779Z,1.90
2019-01-04T17:47:06.287Z,1.43
2019-01-04T17:49:36.795Z,1.70
2019-01-04T17:52:07.435Z,1.80
2019-01-04T17:54:37.911Z,1.80
2019-01-04T17:57:09.853Z,1.80
2019-01-04T17:59:40.312Z,1.60
2019-01-04T18:02:10.803Z,1.80
2019-01-04T18:04:41.269Z,1.80
2019-01-04T18:07:11.704Z,1.70
2019-01-04T18:09:42.167Z,1.80
2019-01-04T18:12:12.715Z,1.70
2019-01-04T18:14:43.193Z,2.00
2019-01-04T18:17:14.133Z,1.70
2019-01-04T18:19:44.572Z,1.50
2019-01-04T18:22:15.437Z,1.47
2019-01-04T18:24:45.860Z,1.70
2019-01-04T18:27:16.320Z,1.30
2019-01-04T18:29:46.774Z,1.33
2019-01-04T18:32:18.820Z,1.30
2019-01-04T18:34:49.368Z,1.73
2019-01-04T18:37:19.808Z,1.40
2019-01-04T18:39:50.371Z,1.80
2019-01-04T18:42:20.865Z,1.60
2019-01-04T18:44:51.316Z,1.70
2019-01-04T18:47:21.784Z,1.70
2019-01-04T18:49:52.327Z,1.60
2019-01-04T18:52:22.860Z,1.63
2019-01-04T18:54:53.337Z,1.70
2019-01-04T18:57:23.825Z,2.37
2019-01-04T18:59:54.302Z,2.20
2019-01-04T19:02:24.763Z,2.20
2019-01-04T19:04:55.326Z,1.63
2019-01-04T19:07:25.903Z,1.90
2019-01-04T19:09:56.943Z,1.97
2019-01-04T19:12:27.417Z,1.90
2019-01-04T19:14:59.063Z,2.23
2019-01-04T19:17:29.646Z,2.20
2019-01-04T19:20:00.161Z,2.50
2019-01-04T19:22:30.799Z,2.50
2019-01-04T19:25:01.283Z,2.70
2019-01-04T19:27:31.850Z,3.00
2019-01-04T19:30:02.402Z,2.80
2019-01-04T19:32:32.957Z,3.17
2019-01-04T19:35:03.455Z,2.77
2019-01-04T19:37:34.194Z,3.03
2019-01-04T19:40:04.842Z,3.40
2019-01-04T19:42:35.331Z,3.33
2019-01-04T19:45:07.849Z,3.57
2019-01-04T19:47:38.355Z,3.53
2019-01-04T19:50:23.053Z,3.70
2019-01-04T19:52:53.629Z,4.27
2019-01-04T19:55:24.078Z,4.73
2019-01-04T19:57:54.664Z,4.30
2019-01-04T20:00:25.178Z,4.47
2019-01-04T20:02:55.651Z,4.00
2019-01-04T20:06:24.836Z,3.97
2019-01-04T20:10:25.152Z,4.33
2019-01-04T20:14:27.777Z,4.30
2019-01-04T20:17:17.305Z,4.50
2019-01-04T20:20:11.338Z,4.67
2019-01-04T20:23:13.090Z,5.20
2019-01-04T20:26:01.353Z,6.47
2019-01-04T20:29:05.756Z,6.50
2019-01-04T20:32:03.922Z,5.57
2019-01-04T20:34:52.130Z,5.73
2019-01-04T20:37:46.943Z,5.03
2019-01-04T20:40:48.332Z,5.53
2019-01-04T20:43:37.487Z,5.00
2019-01-04T20:46:26.126Z,5.27
2019-01-04T20:49:33.880Z,5.23
2019-01-04T20:52:25.541Z,5.03
2019-01-04T20:55:13.061Z,5.20
2019-01-04T20:58:00.992Z,5.60
2019-01-04T21:00:50.367Z,5.40
2019-01-04T21:03:42.574Z,5.23
2019-01-04T21:06:30.909Z,5.33
2019-01-04T21:09:19.081Z,4.90
2019-01-04T21:12:07.067Z,4.80
2019-01-04T21:14:56.459Z,4.97
2019-01-04T21:17:45.883Z,5.20
2019-01-04T21:20:41.136Z,4.90
2019-01-04T21:23:30.551Z,4.23
2019-01-04T21:26:26.243Z,5.03
2019-01-04T21:29:24.760Z,4.87
2019-01-04T21:32:12.750Z,4.70
2019-01-04T21:35:05.530Z,4.50
2019-01-04T21:37:53.257Z,4.83
2019-01-04T21:40:43.842Z,4.83
2019-01-04T21:43:42.021Z,4.67
2019-01-04T21:46:31.128Z,4.70
2019-01-04T21:49:26.728Z,4.93
2019-01-04T21:52:12.317Z,4.63
2019-01-04T21:55:07.539Z,4.87
2019-01-04T21:58:05.795Z,4.70
2019-01-04T22:00:55.159Z,4.77
2019-01-04T22:03:52.662Z,4.77
2019-01-04T22:06:41.990Z,4.87
2019-01-04T22:09:44.747Z,4.97
2019-01-04T22:12:36.903Z,5.03
2019-01-04T22:15:40.283Z,4.87
2019-01-04T22:18:28.355Z,4.30
2019-01-04T22:21:20.714Z,5.33
2019-01-04T22:24:16.303Z,4.63
2019-01-04T22:27:04.375Z,3.80
2019-01-04T22:29:44.174Z,3.77
2019-01-04T22:32:53.349Z,3.90
2019-01-04T22:35:48.613Z,3.30
2019-01-04T22:38:39.467Z,3.40
2019-01-04T22:41:27.637Z,4.10
2019-01-04T22:44:15.751Z,3.70
2019-01-04T22:47:24.709Z,3.63
2019-01-04T22:50:26.506Z,3.80
2019-01-04T22:53:21.898Z,3.77
2019-01-04T22:56:09.835Z,3.27
2019-01-04T22:58:51.491Z,3.33
2019-01-04T23:01:41.357Z,3.17
2019-01-04T23:04:29.608Z,2.80
2019-01-04T23:07:17.908Z,3.20
2019-01-04T23:10:18.753Z,3.00
2019-01-04T23:13:05.214Z,2.57
2019-01-04T23:16:09.708Z,2.60
2019-01-04T23:18:57.344Z,2.70
2019-01-04T23:22:25.880Z,2.37
2019-01-04T23:25:16.790Z,2.00
2019-01-04T23:28:12.157Z,1.90
2019-01-04T23:30:59.829Z,2.17
2019-01-04T23:33:55.380Z,2.10
2019-01-04T23:36:43.310Z,2.07
2019-01-04T23:39:38.802Z,2.10
2019-01-04T23:42:46.169Z,2.03
2019-01-04T23:45:47.636Z,1.77
2019-01-04T23:48:41.779Z,1.90
2019-01-04T23:51:40.314Z,1.80
2019-01-04T23:54:28.320Z,1.57
2019-01-04T23:57:16.764Z,1.70
